createdAt,value
2018-04-29T00:00:25.417Z,101080.54
2018-04-29T00:01:30.150Z,101087.29
2018-04-29T00:02:35.169Z,101088.45
2018-04-29T00:03:39.321Z,101083.77
2018-04-29T00:04:43.449Z,101079.11
2018-04-29T00:05:47.801Z,101081.02
2018-04-29T00:06:52.299Z,101084.63
2018-04-29T00:07:56.628Z,101083.37
2018-04-29T00:09:02.374Z,101079.92
2018-04-29T00:10:06.604Z,101085.77
2018-04-29T00:11:10.734Z,101083.56
2018-04-29T00:12:14.872Z,101078.28
2018-04-29T00:13:19.384Z,101075.14
2018-04-29T00:14:23.482Z,101076.45
2018-04-29T00:15:28.073Z,101081.37
2018-04-29T00:16:33.077Z,101078.59
2018-04-29T00:17:37.288Z,101081.95
2018-04-29T00:18:41.423Z,101076.83
2018-04-29T00:19:45.961Z,101080.41
2018-04-29T00:20:50.250Z,101083.95
2018-04-29T00:21:54.392Z,101083.69
2018-04-29T00:22:58.706Z,101087.31
2018-04-29T00:24:02.887Z,101083.11
2018-04-29T00:25:07.001Z,101079.50
2018-04-29T00:26:11.128Z,101076.36
2018-04-29T00:27:15.349Z,101080.47
2018-04-29T00:28:19.494Z,101080.08
2018-04-29T00:29:23.612Z,101078.30
2018-04-29T00:30:28.116Z,101074.83
2018-04-29T00:31:32.269Z,101073.73
2018-04-29T00:32:36.697Z,101072.23
2018-04-29T00:33:40.856Z,101072.84
2018-04-29T00:34:45.099Z,101070.90
2018-04-29T00:35:49.323Z,101067.27
2018-04-29T00:36:53.512Z,101066.39
2018-04-29T00:37:57.620Z,101070.30
2018-04-29T00:39:02.042Z,101076.85
2018-04-29T00:40:07.181Z,101081.14
2018-04-29T00:41:11.332Z,101072.92
2018-04-29T00:42:15.447Z,101084.19
2018-04-29T00:43:19.567Z,101073.59
2018-04-29T00:44:23.779Z,101079.09
2018-04-29T00:45:28.117Z,101076.98
2018-04-29T00:46:32.236Z,101081.53
2018-04-29T00:47:36.379Z,101079.66
2018-04-29T00:48:41.408Z,101072.62
2018-04-29T00:49:45.569Z,101065.54
2018-04-29T00:50:50.282Z,101071.09
2018-04-29T00:52:08.082Z,101071.69
2018-04-29T00:53:12.354Z,101071.37
2018-04-29T00:54:16.440Z,101072.59
2018-04-29T00:55:20.675Z,101066.98
2018-04-29T00:56:25.113Z,101067.52
2018-04-29T00:57:29.285Z,101070.09
2018-04-29T00:58:33.491Z,101067.33
2018-04-29T00:59:37.613Z,101064.66
2018-04-29T01:00:41.821Z,101067.00
2018-04-29T01:01:46.336Z,101066.53
2018-04-29T01:02:50.996Z,101066.83
2018-04-29T01:03:55.292Z,101062.89
2018-04-29T01:04:59.414Z,101062.92
2018-04-29T01:06:03.575Z,101065.81
2018-04-29T01:07:07.800Z,101067.66
2018-04-29T01:08:11.948Z,101070.63
2018-04-29T01:09:16.358Z,101071.01
2018-04-29T01:10:20.756Z,101064.88
2018-04-29T01:11:24.894Z,101061.91
2018-04-29T01:12:29.009Z,101062.58
2018-04-29T01:13:33.873Z,101061.64
2018-04-29T01:14:38.111Z,101056.83
2018-04-29T01:15:42.511Z,101056.91
2018-04-29T01:16:46.932Z,101056.94
2018-04-29T01:17:51.246Z,101059.23
2018-04-29T01:18:55.430Z,101062.32
2018-04-29T01:19:59.634Z,101070.25
2018-04-29T01:21:04.704Z,101070.52
2018-04-29T01:22:08.806Z,101069.00
2018-04-29T01:23:13.042Z,101068.83
2018-04-29T01:24:17.193Z,101061.76
2018-04-29T01:25:21.462Z,101059.95
2018-04-29T01:26:25.879Z,101058.72
2018-04-29T01:27:29.982Z,101062.49
2018-04-29T01:28:34.210Z,101060.32
2018-04-29T01:29:38.363Z,101065.23
2018-04-29T01:30:42.699Z,101069.02
2018-04-29T01:31:47.039Z,101062.78
2018-04-29T01:32:51.382Z,101064.95
2018-04-29T01:33:55.525Z,101074.05
2018-04-29T01:35:00.053Z,101076.02
2018-04-29T01:36:05.360Z,101071.02
2018-04-29T01:37:09.484Z,101068.03
2018-04-29T01:38:13.706Z,101065.79
2018-04-29T01:39:17.864Z,101060.84
2018-04-29T01:40:21.984Z,101063.09
2018-04-29T01:41:26.187Z,101065.34
2018-04-29T01:42:30.300Z,101070.38
2018-04-29T01:43:35.102Z,101069.00
2018-04-29T01:44:39.558Z,101068.09
2018-04-29T01:45:43.878Z,101065.81
2018-04-29T01:46:48.435Z,101062.97
2018-04-29T01:47:52.681Z,101065.01
2018-04-29T01:48:56.888Z,101063.72
2018-04-29T01:50:01.046Z,101059.12
2018-04-29T01:51:06.051Z,101060.81
2018-04-29T01:52:10.174Z,101050.75
2018-04-29T01:53:14.369Z,101054.96
2018-04-29T01:54:18.495Z,101052.02
2018-04-29T01:55:22.699Z,101058.48
2018-04-29T01:56:26.960Z,101065.88
2018-04-29T01:57:31.065Z,101064.77
2018-04-29T01:58:35.175Z,101072.05
2018-04-29T01:59:40.085Z,101069.59
2018-04-29T02:00:44.595Z,101075.13
2018-04-29T02:01:48.840Z,101078.22
2018-04-29T02:02:53.040Z,101071.53
2018-04-29T02:03:57.239Z,101070.89
2018-04-29T02:05:01.578Z,101071.75
2018-04-29T02:06:05.771Z,101067.21
2018-04-29T02:07:10.584Z,101063.96
2018-04-29T02:08:15.084Z,101068.59
2018-04-29T02:09:19.251Z,101067.25
2018-04-29T02:10:23.396Z,101068.88
2018-04-29T02:11:27.509Z,101064.45
2018-04-29T02:12:31.743Z,101073.53
2018-04-29T02:13:36.021Z,101063.00
2018-04-29T02:14:41.149Z,101066.50
2018-04-29T02:15:45.794Z,101065.98
2018-04-29T02:16:50.293Z,101067.70
2018-04-29T02:17:54.535Z,101061.33
2018-04-29T02:18:58.646Z,101068.31
2018-04-29T02:20:02.754Z,101072.00
2018-04-29T02:21:07.927Z,101067.11
2018-04-29T02:22:12.112Z,101060.77
2018-04-29T02:23:16.376Z,101060.17
2018-04-29T02:24:20.555Z,101059.73
2018-04-29T02:25:24.676Z,101055.88
2018-04-29T02:26:28.872Z,101058.77
2018-04-29T02:27:33.187Z,101054.24
2018-04-29T02:28:37.313Z,101058.26
2018-04-29T02:29:42.349Z,101062.72
2018-04-29T02:30:46.659Z,101052.88
2018-04-29T02:31:51.006Z,101061.52
2018-04-29T02:32:55.141Z,101060.80
2018-04-29T02:33:59.259Z,101064.43
2018-04-29T02:35:03.517Z,101063.89
2018-04-29T02:36:07.889Z,101057.84
2018-04-29T02:37:12.009Z,101060.74
2018-04-29T02:38:16.163Z,101066.88
2018-04-29T02:39:20.595Z,101070.85
2018-04-29T02:40:24.795Z,101061.73
2018-04-29T02:41:28.942Z,101064.55
2018-04-29T02:42:33.214Z,101065.70
2018-04-29T02:43:37.414Z,101061.33
2018-04-29T02:44:42.196Z,101068.55
2018-04-29T02:45:47.016Z,101063.14
2018-04-29T02:46:51.344Z,101061.44
2018-04-29T02:47:55.492Z,101059.08
2018-04-29T02:48:59.653Z,101059.20
2018-04-29T02:50:03.878Z,101062.34
2018-04-29T02:51:08.026Z,101061.88
2018-04-29T02:52:12.446Z,101056.50
2018-04-29T02:53:16.592Z,101061.44
2018-04-29T02:54:20.707Z,101056.03
2018-04-29T02:55:24.893Z,101050.39
2018-04-29T02:56:29.038Z,101048.20
2018-04-29T02:57:33.161Z,101052.73
2018-04-29T02:58:37.359Z,101057.69
2018-04-29T02:59:42.105Z,101049.49
2018-04-29T03:00:46.874Z,101051.28
2018-04-29T03:01:51.172Z,101050.64
2018-04-29T03:02:55.450Z,101047.32
2018-04-29T03:03:59.576Z,101050.66
2018-04-29T03:05:04.789Z,101046.20
2018-04-29T03:06:08.940Z,101043.73
2018-04-29T03:07:13.078Z,101048.71
2018-04-29T03:08:17.193Z,101042.73
2018-04-29T03:09:21.618Z,101044.45
2018-04-29T03:10:26.077Z,101045.17
2018-04-29T03:11:30.504Z,101042.04
2018-04-29T03:12:34.655Z,101043.86
2018-04-29T03:13:38.788Z,101044.55
2018-04-29T03:14:42.911Z,101041.25
2018-04-29T03:15:47.704Z,101046.35
2018-04-29T03:16:51.993Z,101042.75
2018-04-29T03:17:56.112Z,101037.33
2018-04-29T03:19:00.225Z,101036.36
2018-04-29T03:20:05.067Z,101029.43
2018-04-29T03:21:09.813Z,101037.09
2018-04-29T03:22:13.935Z,101035.45
2018-04-29T03:23:18.061Z,101039.56
2018-04-29T03:24:22.174Z,101032.00
2018-04-29T03:25:26.408Z,101031.22
2018-04-29T03:26:30.545Z,101026.84
2018-04-29T03:27:34.775Z,101027.48
2018-04-29T03:28:38.894Z,101030.52
2018-04-29T03:29:43.316Z,101028.58
2018-04-29T03:30:48.606Z,101035.70
2018-04-29T03:31:53.109Z,101034.73
2018-04-29T03:32:57.219Z,101033.87
2018-04-29T03:34:01.351Z,101032.73
2018-04-29T03:35:06.633Z,101032.39
2018-04-29T03:36:11.085Z,101032.86
2018-04-29T03:37:15.299Z,101032.62
2018-04-29T03:38:19.401Z,101027.14
2018-04-29T03:39:23.719Z,101022.42
2018-04-29T03:40:27.844Z,101024.61
2018-04-29T03:41:31.989Z,101023.56
2018-04-29T03:42:36.423Z,101017.52
2018-04-29T03:43:40.533Z,101018.86
2018-04-29T03:44:45.349Z,101022.47
2018-04-29T03:45:50.721Z,101019.67
2018-04-29T03:46:54.852Z,101024.66
2018-04-29T03:47:59.115Z,101019.27
2018-04-29T03:49:03.320Z,101020.57
2018-04-29T03:50:08.231Z,101012.89
2018-04-29T03:51:12.457Z,101015.12
2018-04-29T03:52:16.584Z,101021.88
2018-04-29T03:53:20.712Z,101015.61
2018-04-29T03:54:24.841Z,101011.94
2018-04-29T03:55:29.363Z,101019.60
2018-04-29T03:56:33.551Z,101024.48
2018-04-29T03:57:48.410Z,101016.53
2018-04-29T03:59:03.436Z,101021.56
2018-04-29T04:00:24.236Z,101018.42
2018-04-29T04:03:41.292Z,101018.09
2018-04-29T04:04:45.513Z,101028.93
2018-04-29T04:05:49.679Z,101032.31
2018-04-29T04:06:53.821Z,101036.84
2018-04-29T04:07:58.233Z,101035.75
2018-04-29T04:09:02.467Z,101035.02
2018-04-29T04:10:07.311Z,101037.06
2018-04-29T04:11:11.487Z,101034.28
2018-04-29T04:12:15.604Z,101041.20
2018-04-29T04:13:20.302Z,101035.04
2018-04-29T04:14:24.780Z,101033.73
2018-04-29T04:15:29.175Z,101034.88
2018-04-29T04:16:33.315Z,101032.62
2018-04-29T04:17:37.429Z,101026.20
2018-04-29T04:18:41.545Z,101030.89
2018-04-29T04:19:45.657Z,101029.78
2018-04-29T04:20:49.884Z,101034.77
2018-04-29T04:21:54.105Z,101035.80
2018-04-29T04:22:58.340Z,101035.45
2018-04-29T04:24:02.854Z,101036.98
2018-04-29T04:25:06.999Z,101035.98
2018-04-29T04:26:12.139Z,101033.59
2018-04-29T04:27:16.283Z,101031.80
2018-04-29T04:28:20.452Z,101025.67
2018-04-29T04:29:24.605Z,101020.53
2018-04-29T04:30:29.471Z,101018.78
2018-04-29T04:31:33.584Z,101020.34
2018-04-29T04:32:37.819Z,101016.64
2018-04-29T04:33:41.939Z,101016.95
2018-04-29T04:34:46.213Z,101021.56
2018-04-29T04:35:50.325Z,101020.66
2018-04-29T04:36:54.857Z,101021.06
2018-04-29T04:37:59.058Z,101021.61
2018-04-29T04:39:03.233Z,101023.63
2018-04-29T04:40:07.401Z,101023.91
2018-04-29T04:41:12.173Z,101017.56
2018-04-29T04:42:16.317Z,101019.05
2018-04-29T04:43:20.741Z,101016.32
2018-04-29T04:44:24.947Z,101009.86
2018-04-29T04:45:29.541Z,101012.80
2018-04-29T04:46:33.672Z,101019.36
2018-04-29T04:47:37.887Z,101015.45
2018-04-29T04:48:42.045Z,101026.34
2018-04-29T04:49:46.251Z,101029.81
2018-04-29T04:50:50.392Z,101031.23
2018-04-29T04:51:55.430Z,101032.43
2018-04-29T04:52:59.560Z,101027.94
2018-04-29T04:54:03.789Z,101029.18
2018-04-29T04:55:07.941Z,101028.97
2018-04-29T04:56:12.687Z,101030.95
2018-04-29T04:57:17.589Z,101027.03
2018-04-29T04:58:21.796Z,101035.60
2018-04-29T04:59:25.908Z,101035.06
2018-04-29T05:00:30.844Z,101033.95
2018-04-29T05:01:34.994Z,101036.98
2018-04-29T05:02:39.107Z,101037.84
2018-04-29T05:03:43.333Z,101037.45
2018-04-29T05:04:47.464Z,101035.27
2018-04-29T05:05:51.582Z,101034.63
2018-04-29T05:06:56.169Z,101037.23
2018-04-29T05:08:00.358Z,101035.94
2018-04-29T05:09:04.714Z,101035.34
2018-04-29T05:10:08.839Z,101037.44
2018-04-29T05:11:12.967Z,101039.10
2018-04-29T05:12:17.868Z,101047.80
2018-04-29T05:13:22.292Z,101046.19
2018-04-29T05:14:26.408Z,101050.38
2018-04-29T05:15:30.519Z,101048.30
2018-04-29T05:16:34.960Z,101052.77
2018-04-29T05:17:39.069Z,101055.39
2018-04-29T05:18:43.374Z,101058.94
2018-04-29T05:19:47.479Z,101060.52
2018-04-29T05:20:51.621Z,101058.48
2018-04-29T05:21:56.508Z,101062.27
2018-04-29T05:23:01.797Z,101063.64
2018-04-29T05:24:05.928Z,101062.25
2018-04-29T05:25:10.041Z,101052.31
2018-04-29T05:26:14.485Z,101056.11
2018-04-29T05:27:18.708Z,101054.80
2018-04-29T05:28:23.023Z,101055.35
2018-04-29T05:29:27.165Z,101055.67
2018-04-29T05:30:31.659Z,101052.05
2018-04-29T05:31:35.879Z,101051.05
2018-04-29T05:32:40.295Z,101047.15
2018-04-29T05:33:44.429Z,101043.73
2018-04-29T05:34:48.537Z,101049.83
2018-04-29T05:35:52.753Z,101051.63
2018-04-29T05:36:58.058Z,101051.70
2018-04-29T05:38:02.497Z,101051.12
2018-04-29T05:39:07.005Z,101048.75
2018-04-29T05:40:11.121Z,101051.96
2018-04-29T05:41:15.828Z,101061.00
2018-04-29T05:42:20.043Z,101048.69
2018-04-29T05:43:24.168Z,101054.09
2018-04-29T05:44:28.312Z,101044.79
2018-04-29T05:45:33.113Z,101054.89
2018-04-29T05:46:37.248Z,101048.73
2018-04-29T05:47:41.438Z,101057.36
2018-04-29T05:48:45.559Z,101057.11
2018-04-29T05:49:49.819Z,101063.17
2018-04-29T05:50:54.401Z,101066.73
2018-04-29T05:51:58.599Z,101070.22
2018-04-29T05:53:02.814Z,101070.55
2018-04-29T05:54:06.925Z,101075.33
2018-04-29T05:55:11.209Z,101073.42
2018-04-29T05:56:15.361Z,101078.69
2018-04-29T05:57:19.808Z,101073.03
2018-04-29T05:58:24.030Z,101073.98
2018-04-29T05:59:28.165Z,101082.03
2018-04-29T06:00:32.714Z,101078.78
2018-04-29T06:01:36.906Z,101090.97
2018-04-29T06:02:41.070Z,101082.31
2018-04-29T06:03:45.625Z,101086.70
2018-04-29T06:04:49.850Z,101085.94
2018-04-29T06:05:54.058Z,101086.55
2018-04-29T06:06:58.374Z,101088.19
2018-04-29T06:08:02.763Z,101083.69
2018-04-29T06:09:07.094Z,101091.21
2018-04-29T06:10:11.310Z,101088.96
2018-04-29T06:11:15.532Z,101080.70
2018-04-29T06:12:20.682Z,101083.92
2018-04-29T06:13:24.838Z,101083.99
2018-04-29T06:14:28.940Z,101083.82
2018-04-29T06:15:33.247Z,101083.92
2018-04-29T06:16:37.796Z,101086.41
2018-04-29T06:17:41.949Z,101091.34
2018-04-29T06:18:46.220Z,101083.76
2018-04-29T06:19:50.350Z,101087.48
2018-04-29T06:20:54.576Z,101082.38
2018-04-29T06:21:59.460Z,101073.24
2018-04-29T06:23:04.096Z,101067.23
2018-04-29T06:24:08.333Z,101067.60
2018-04-29T06:25:12.544Z,101074.41
2018-04-29T06:26:16.687Z,101064.97
2018-04-29T06:27:21.829Z,101075.73
2018-04-29T06:28:25.960Z,101069.75
2018-04-29T06:29:30.477Z,101060.27
2018-04-29T06:30:34.932Z,101063.52
2018-04-29T06:31:39.329Z,101062.58
2018-04-29T06:32:43.897Z,101062.61
2018-04-29T06:33:48.494Z,101062.80
2018-04-29T06:34:52.630Z,101066.17
2018-04-29T06:35:57.663Z,101063.16
2018-04-29T06:37:02.099Z,101073.33
2018-04-29T06:38:06.264Z,101075.58
2018-04-29T06:39:10.484Z,101074.03
2018-04-29T06:40:16.289Z,101067.56
2018-04-29T06:41:20.977Z,101066.74
2018-04-29T06:42:25.144Z,101066.27
2018-04-29T06:43:29.314Z,101064.72
2018-04-29T06:44:33.598Z,101058.14
2018-04-29T06:45:38.476Z,101059.53
2018-04-29T06:46:43.020Z,101057.20
2018-04-29T06:47:47.224Z,101058.30
2018-04-29T06:48:51.364Z,101059.53
2018-04-29T06:49:56.714Z,101059.91
2018-04-29T06:51:01.017Z,101056.73
2018-04-29T06:52:05.300Z,101047.06
2018-04-29T06:53:09.768Z,101055.01
2018-04-29T06:54:13.898Z,101052.11
2018-04-29T06:55:18.854Z,101049.80
2018-04-29T06:56:23.056Z,101054.88
2018-04-29T06:57:27.228Z,101051.37
2018-04-29T06:58:31.370Z,101043.06
2018-04-29T06:59:35.822Z,101041.49
2018-04-29T07:00:40.267Z,101041.41
2018-04-29T07:01:44.478Z,101048.62
2018-04-29T07:02:48.646Z,101046.10
2018-04-29T07:03:52.778Z,101041.76
2018-04-29T07:04:57.162Z,101039.37
2018-04-29T07:06:01.594Z,101036.43
2018-04-29T07:07:05.771Z,101039.88
2018-04-29T07:08:10.138Z,101035.08
2018-04-29T07:09:14.280Z,101030.02
2018-04-29T07:10:18.494Z,101026.44
2018-04-29T07:11:22.672Z,101025.98
2018-04-29T07:12:26.814Z,101023.99
2018-04-29T07:13:30.949Z,101022.52
2018-04-29T07:14:35.276Z,101026.00
2018-04-29T07:15:39.574Z,101026.30
2018-04-29T07:16:43.768Z,101019.98
2018-04-29T07:17:48.254Z,101024.31
2018-04-29T07:18:52.402Z,101022.86
2018-04-29T07:19:56.696Z,101027.13
2018-04-29T07:21:01.868Z,101024.91
2018-04-29T07:22:06.046Z,101018.23
2018-04-29T07:23:10.402Z,101020.88
2018-04-29T07:24:14.963Z,101031.87
2018-04-29T07:25:19.232Z,101016.11
2018-04-29T07:26:23.394Z,101024.08
2018-04-29T07:27:27.607Z,101032.67
2018-04-29T07:28:31.759Z,101024.20
2018-04-29T07:29:35.981Z,101026.03
2018-04-29T07:30:40.466Z,101034.05
2018-04-29T07:31:44.874Z,101026.77
2018-04-29T07:32:49.029Z,101033.57
2018-04-29T07:33:53.154Z,101037.95
2018-04-29T07:34:57.660Z,101031.18
2018-04-29T07:36:02.837Z,101031.21
2018-04-29T07:37:07.010Z,101037.44
2018-04-29T07:38:11.305Z,101034.70
2018-04-29T07:39:15.527Z,101033.52
2018-04-29T07:40:19.696Z,101035.11
2018-04-29T07:41:24.144Z,101042.19
2018-04-29T07:42:28.309Z,101039.07
2018-04-29T07:43:32.529Z,101032.16
2018-04-29T07:44:36.758Z,101046.31
2018-04-29T07:45:41.417Z,101035.94
2018-04-29T07:46:45.883Z,101034.80
2018-04-29T07:47:50.446Z,101039.88
2018-04-29T07:48:54.587Z,101040.81
2018-04-29T07:49:59.964Z,101035.82
2018-04-29T07:51:04.334Z,101042.02
2018-04-29T07:52:33.316Z,101046.94
2018-04-29T07:53:37.912Z,101050.45
2018-04-29T07:54:42.235Z,101053.70
2018-04-29T07:55:46.532Z,101053.95
2018-04-29T07:56:50.660Z,101052.88
2018-04-29T07:57:54.920Z,101053.98
2018-04-29T07:58:59.696Z,101054.23
2018-04-29T08:00:06.448Z,101051.73
2018-04-29T08:01:11.243Z,101051.96
2018-04-29T08:02:15.464Z,101051.18
2018-04-29T08:03:20.322Z,101048.05
2018-04-29T08:04:24.560Z,101052.48
2018-04-29T08:05:28.696Z,101052.44
2018-04-29T08:06:32.970Z,101048.67
2018-04-29T08:07:37.131Z,101048.09
2018-04-29T08:08:41.272Z,101049.17
2018-04-29T08:09:45.424Z,101051.33
2018-04-29T08:10:49.726Z,101036.10
2018-04-29T08:11:53.869Z,101053.70
2018-04-29T08:12:59.046Z,101056.47
2018-04-29T08:14:03.430Z,101049.60
2018-04-29T08:15:07.873Z,101052.30
2018-04-29T08:16:12.339Z,101046.95
2018-04-29T08:17:16.499Z,101056.76
2018-04-29T08:18:21.427Z,101053.61
2018-04-29T08:19:26.026Z,101052.31
2018-04-29T08:20:30.211Z,101038.71
2018-04-29T08:21:34.406Z,101043.09
2018-04-29T08:22:38.660Z,101035.95
2018-04-29T08:23:42.751Z,101042.55
2018-04-29T08:24:47.008Z,101044.49
2018-04-29T08:25:51.448Z,101041.42
2018-04-29T08:26:55.568Z,101050.95
2018-04-29T08:28:00.808Z,101048.67
2018-04-29T08:29:05.056Z,101047.05
2018-04-29T08:30:09.516Z,101049.26
2018-04-29T08:31:13.661Z,101048.94
2018-04-29T08:32:18.164Z,101045.00
2018-04-29T08:33:22.306Z,101045.78
2018-04-29T08:34:26.458Z,101040.31
2018-04-29T08:35:30.714Z,101037.52
2018-04-29T08:36:34.934Z,101034.86
2018-04-29T08:37:39.414Z,101027.81
2018-04-29T08:38:43.626Z,101032.30
2018-04-29T08:39:47.778Z,101028.58
2018-04-29T08:40:52.099Z,101020.81
2018-04-29T08:41:56.317Z,101014.46
2018-04-29T08:43:01.863Z,101028.30
2018-04-29T08:44:06.198Z,101025.45
2018-04-29T08:45:11.907Z,101028.50
2018-04-29T08:46:16.239Z,101030.36
2018-04-29T08:47:20.412Z,101030.63
2018-04-29T08:48:24.747Z,101026.09
2018-04-29T08:49:29.434Z,101016.70
2018-04-29T08:50:33.675Z,101029.45
2018-04-29T08:51:37.842Z,101020.92
2018-04-29T08:52:42.031Z,101034.84
2018-04-29T08:53:46.385Z,101032.52
2018-04-29T08:54:50.583Z,101028.78
2018-04-29T08:55:55.156Z,101026.37
2018-04-29T08:56:59.399Z,101020.49
2018-04-29T08:58:03.915Z,101012.31
2018-04-29T08:59:08.122Z,101020.98
2018-04-29T09:00:14.429Z,101012.86
2018-04-29T09:01:18.623Z,101004.23
2018-04-29T09:02:22.803Z,101007.25
2018-04-29T09:03:27.081Z,101009.94
2018-04-29T09:04:31.276Z,101006.45
2018-04-29T09:05:35.505Z,101007.16
2018-04-29T09:06:39.641Z,101001.77
2018-04-29T09:07:43.798Z,101000.34
2018-04-29T09:08:48.033Z,101004.96
2018-04-29T09:09:52.289Z,100998.28
2018-04-29T09:10:56.426Z,100996.17
2018-04-29T09:12:00.668Z,100995.24
2018-04-29T09:13:05.004Z,100992.12
2018-04-29T09:14:09.457Z,101004.42
2018-04-29T09:15:15.865Z,101004.20
2018-04-29T09:16:20.022Z,101001.81
2018-04-29T09:17:24.270Z,100997.44
2018-04-29T09:18:28.428Z,101001.00
2018-04-29T09:19:32.589Z,100998.69
2018-04-29T09:20:37.028Z,100992.56
2018-04-29T09:21:41.191Z,101000.48
2018-04-29T09:22:45.435Z,101003.31
2018-04-29T09:23:49.595Z,101004.41
2018-04-29T09:24:53.839Z,101000.34
2018-04-29T09:25:57.980Z,101000.70
2018-04-29T09:27:02.862Z,100999.91
2018-04-29T09:28:07.005Z,101012.39
2018-04-29T09:29:11.239Z,101003.32
2018-04-29T09:30:16.425Z,101013.75
2018-04-29T09:31:21.539Z,101016.47
2018-04-29T09:32:26.100Z,101008.36
2018-04-29T09:33:30.273Z,101004.50
2018-04-29T09:34:34.503Z,100995.48
2018-04-29T09:36:40.697Z,101006.15
2018-04-29T09:37:45.217Z,101008.00
2018-04-29T09:38:49.639Z,101004.72
2018-04-29T09:39:53.764Z,100999.27
2018-04-29T09:40:57.967Z,100999.59
2018-04-29T09:42:02.387Z,101003.48
2018-04-29T09:43:06.655Z,101008.33
2018-04-29T09:44:10.895Z,101006.35
2018-04-29T09:45:17.342Z,100997.61
2018-04-29T09:46:22.382Z,100988.91
2018-04-29T09:47:26.579Z,100990.12
2018-04-29T09:48:30.757Z,100991.12
2018-04-29T09:49:35.092Z,100992.94
2018-04-29T09:50:39.250Z,100991.91
2018-04-29T09:51:43.775Z,100989.68
2018-04-29T09:52:48.051Z,100994.27
2018-04-29T09:53:52.197Z,100996.61
2018-04-29T09:54:56.527Z,100995.91
2018-04-29T09:56:00.757Z,101000.14
2018-04-29T09:57:05.275Z,100997.59
2018-04-29T09:58:09.530Z,101001.59
2018-04-29T09:59:13.776Z,100995.88
2018-04-29T10:00:22.126Z,100993.16
2018-04-29T10:01:26.497Z,100995.40
2018-04-29T10:02:32.047Z,100987.66
2018-04-29T10:03:36.854Z,100997.10
2018-04-29T10:04:41.068Z,100989.86
2018-04-29T10:05:45.794Z,100990.84
2018-04-29T10:06:50.374Z,100989.13
2018-04-29T10:07:54.609Z,100987.53
2018-04-29T10:08:58.762Z,100989.16
2018-04-29T10:10:03.544Z,100983.85
2018-04-29T10:11:07.816Z,100984.99
2018-04-29T10:12:12.076Z,100985.20
2018-04-29T10:13:16.295Z,100987.23
2018-04-29T10:14:20.990Z,100979.12
2018-04-29T10:15:25.476Z,100972.53
2018-04-29T10:16:29.634Z,100977.23
2018-04-29T10:17:33.892Z,100975.26
2018-04-29T10:18:38.039Z,100974.59
2018-04-29T10:19:42.222Z,100981.20
2018-04-29T10:20:46.376Z,100970.74
2018-04-29T10:21:50.634Z,100981.44
2018-04-29T10:22:55.064Z,100982.16
2018-04-29T10:23:59.214Z,100979.31
2018-04-29T10:25:03.380Z,100977.34
2018-04-29T10:26:08.305Z,100975.80
2018-04-29T10:27:12.516Z,100978.80
2018-04-29T10:28:16.912Z,100977.48
2018-04-29T10:29:21.612Z,100974.02
2018-04-29T10:30:26.098Z,100970.95
2018-04-29T10:31:31.136Z,100974.00
2018-04-29T10:32:35.346Z,100966.08
2018-04-29T10:33:39.587Z,100970.02
2018-04-29T10:34:43.710Z,100965.83
2018-04-29T10:35:48.464Z,100959.48
2018-04-29T10:36:52.604Z,100962.64
2018-04-29T10:37:56.750Z,100959.45
2018-04-29T10:39:00.905Z,100962.93
2018-04-29T10:40:05.136Z,100955.59
2018-04-29T10:41:09.685Z,100950.95
2018-04-29T10:42:13.847Z,100959.88
2018-04-29T10:43:18.055Z,100956.78
2018-04-29T10:44:22.325Z,100953.41
2018-04-29T10:45:26.632Z,100957.77
2018-04-29T10:46:31.742Z,100951.87
2018-04-29T10:47:36.464Z,100954.80
2018-04-29T10:48:40.627Z,100955.25
2018-04-29T10:49:44.844Z,100950.93
2018-04-29T10:50:49.002Z,100947.84
2018-04-29T10:51:53.264Z,100946.12
2018-04-29T10:52:57.542Z,100943.98
2018-04-29T10:54:02.316Z,100939.80
2018-04-29T10:55:06.720Z,100941.61
2018-04-29T10:56:11.083Z,100940.85
2018-04-29T10:57:15.250Z,100945.04
2018-04-29T10:58:19.581Z,100930.91
2018-04-29T10:59:23.918Z,100924.77
2018-04-29T11:00:28.770Z,100929.83
2018-04-29T11:01:32.946Z,100918.31
2018-04-29T11:02:37.334Z,100920.42
2018-04-29T11:03:41.515Z,100920.08
2018-04-29T11:04:45.728Z,100921.55
2018-04-29T11:05:49.888Z,100933.13
2018-04-29T11:06:54.054Z,100929.61
2018-04-29T11:07:58.316Z,100928.66
2018-04-29T11:09:02.542Z,100933.15
2018-04-29T11:10:06.871Z,100925.44
2018-04-29T11:12:18.176Z,100930.33
2018-04-29T11:13:22.677Z,100933.47
2018-04-29T11:14:27.001Z,100938.67
2018-04-29T11:15:31.474Z,100926.46
2018-04-29T11:16:35.621Z,100929.70
2018-04-29T11:17:39.861Z,100935.78
2018-04-29T11:18:44.501Z,100928.98
2018-04-29T11:19:48.639Z,100919.82
2018-04-29T11:20:52.924Z,100920.09
2018-04-29T11:21:57.079Z,100919.36
2018-04-29T11:23:01.346Z,100918.36
2018-04-29T11:24:05.562Z,100922.05
2018-04-29T11:25:10.631Z,100925.61
2018-04-29T11:26:14.900Z,100925.52
2018-04-29T11:27:19.054Z,100929.95
2018-04-29T11:28:24.362Z,100934.53
2018-04-29T11:29:28.634Z,100936.44
2018-04-29T11:30:33.146Z,100935.13
2018-04-29T11:31:37.401Z,100941.44
2018-04-29T11:32:41.611Z,100941.13
2018-04-29T11:33:45.858Z,100931.23
2018-04-29T11:34:50.124Z,100937.63
2018-04-29T11:35:54.324Z,100935.48
2018-04-29T11:36:58.798Z,100924.36
2018-04-29T11:38:03.003Z,100924.36
2018-04-29T11:39:07.307Z,100923.83
2018-04-29T11:40:11.598Z,100917.45
2018-04-29T11:41:15.750Z,100915.92
2018-04-29T11:42:19.944Z,100905.30
2018-04-29T11:43:24.694Z,100896.17
2018-04-29T11:44:28.938Z,100899.66
2018-04-29T11:45:33.340Z,100898.39
2018-04-29T11:46:37.770Z,100887.48
2018-04-29T11:47:41.956Z,100885.46
2018-04-29T11:48:46.140Z,100880.56
2018-04-29T11:49:50.630Z,100883.86
2018-04-29T11:50:54.798Z,100874.36
2018-04-29T11:51:59.223Z,100887.57
2018-04-29T11:53:03.504Z,100886.22
2018-04-29T11:54:07.988Z,100886.51
2018-04-29T11:55:12.223Z,100897.20
2018-04-29T11:56:16.987Z,100896.32
2018-04-29T11:57:21.162Z,100891.14
2018-04-29T11:58:25.339Z,100894.20
2018-04-29T11:59:30.296Z,100892.00
2018-04-29T12:00:35.009Z,100894.22
2018-04-29T12:01:39.916Z,100889.58
2018-04-29T12:02:44.214Z,100889.90
2018-04-29T12:03:48.414Z,100886.38
2018-04-29T12:04:52.614Z,100875.17
2018-04-29T12:05:56.819Z,100875.85
2018-04-29T12:07:00.956Z,100883.81
2018-04-29T12:08:05.240Z,100881.46
2018-04-29T12:09:09.416Z,100882.92
2018-04-29T12:10:13.632Z,100881.26
2018-04-29T12:11:18.110Z,100881.86
2018-04-29T12:12:22.382Z,100873.71
2018-04-29T12:13:26.976Z,100869.42
2018-04-29T12:14:31.184Z,100874.48
2018-04-29T12:15:35.344Z,100874.39
2018-04-29T12:16:39.562Z,100875.70
2018-04-29T12:17:43.850Z,100874.11
2018-04-29T12:18:48.155Z,100876.22
2018-04-29T12:19:52.620Z,100867.72